Time;durP1;ratioP1;P1;durP2;ratioP2;P2;SDS_P1;SDS_P2;PMS_P1;PMS_P2;Temp;Humidity;BMP_temperature;BMP_pressure;BME280_temperature;BME280_humidity;BME280_pressure;Samples;Min_cycle;Max_cycle;Signal;HPM_P1;HPM_P2
2021/01/13 00:02:20;;;;;;;;;11.33;11.33;;;;;-0.54;80.77;100404.28;5140173;27;9021;-72
2021/01/13 00:05:16;;;;;;;;;13.67;12.33;;;;;-0.47;79.87;100375.81;5157583;27;8820;-71
2021/01/13 00:07:44;;;;;;;;;17.67;16.33;;;;;-0.52;80.91;100367.66;5154488;27;8851;-72
2021/01/13 00:10:40;;;;;;;;;18.67;18.33;;;;;-0.45;80.28;100335.63;5136188;27;8947;-72
2021/01/13 00:13:21;;;;;;;;;22.33;21.67;;;;;-0.51;80.98;100317.66;5121186;27;8851;-71
2021/01/13 00:16:06;;;;;;;;;21.00;19.00;;;;;-0.64;80.70;100304.56;5136984;27;8865;-72
2021/01/13 00:19:02;;;;;;;;;23.67;23.67;;;;;-0.54;80.75;100282.88;5122502;27;9557;-71
2021/01/13 00:21:48;;;;;;;;;24.33;24.33;;;;;-0.51;80.89;100254.38;5144093;27;8833;-71
2021/01/13 00:24:44;;;;;;;;;25.00;24.00;;;;;-0.35;79.78;100245.97;5131731;27;8829;-72
2021/01/13 00:27:39;;;;;;;;;27.00;24.67;;;;;-0.25;79.35;100228.88;5136009;27;8835;-72
2021/01/13 00:30:07;;;;;;;;;27.00;23.33;;;;;-0.14;79.45;100227.81;5157026;27;8844;-72
2021/01/13 00:33:06;;;;;;;;;24.33;23.00;;;;;-0.12;79.07;100197.63;5147331;27;8847;-71
2021/01/13 00:35:54;;;;;;;;;25.67;25.67;;;;;0.00;79.41;100181.88;5134582;27;8836;-71
2021/01/13 00:38:51;;;;;;;;;24.67;24.67;;;;;0.10;79.62;100190.00;5156742;27;8829;-73
2021/01/13 00:41:46;;;;;;;;;16.33;15.33;;;;;-0.09;79.39;100235.13;5143747;27;8820;-72
2021/01/13 00:44:42;;;;;;;;;22.00;22.00;;;;;0.21;78.73;100272.38;5131694;27;8851;-72
2021/01/13 00:47:40;;;;;;;;;20.33;20.33;;;;;0.28;78.94;100265.59;5135678;27;8922;-72
2021/01/13 00:50:35;;;;;;;;;21.67;21.67;;;;;0.41;78.87;100256.06;5135466;27;8842;-69
2021/01/13 00:53:31;;;;;;;;;18.67;18.00;;;;;0.28;78.63;100232.94;5133482;27;8877;-72
2021/01/13 00:56:07;;;;;;;;;18.00;18.00;;;;;0.07;79.51;100211.47;5145948;27;8825;-72
2021/01/13 00:59:02;;;;;;;;;20.33;18.00;;;;;0.34;79.83;100203.03;5155404;27;8841;-72
2021/01/13 01:01:58;;;;;;;;;25.00;16.67;;;;;0.37;79.96;100186.97;5156026;27;8829;-72
2021/01/13 01:04:53;;;;;;;;;13.00;13.00;;;;;0.37;79.96;100191.59;5142034;27;8883;-70
2021/01/13 01:07:22;;;;;;;;;12.67;10.67;;;;;0.46;80.04;100195.38;5147875;27;8823;-70
2021/01/13 01:09:58;;;;;;;;;18.67;18.00;;;;;0.48;80.29;100195.94;5136355;27;8827;-70
2021/01/13 01:12:26;;;;;;;;;18.67;18.67;;;;;0.50;80.14;100185.56;5118080;27;8874;-70
2021/01/13 01:15:22;;;;;;;;;18.33;18.00;;;;;0.68;79.62;100186.88;5135029;27;8838;-70
2021/01/13 01:18:17;;;;;;;;;21.00;15.00;;;;;0.40;79.64;100180.16;5151005;27;8821;-71
2021/01/13 01:21:13;;;;;;;;;16.33;16.33;;;;;0.49;80.54;100206.53;5153665;27;8837;-70
2021/01/13 01:24:09;;;;;;;;;18.67;18.67;;;;;0.57;79.95;100237.81;5134810;27;8977;-71
2021/01/13 01:26:47;;;;;;;;;21.67;21.00;;;;;0.70;79.42;100215.47;5145718;27;8857;-71
2021/01/13 01:29:42;;;;;;;;;13.00;13.00;;;;;0.75;79.28;100182.75;5135476;27;8859;-71
2021/01/13 01:32:10;;;;;;;;;18.00;18.00;;;;;0.75;79.95;100166.44;5135837;27;8922;-71
2021/01/13 01:35:06;;;;;;;;;15.67;15.00;;;;;0.81;80.40;100149.00;5134953;27;8830;-71
2021/01/13 01:38:02;;;;;;;;;19.00;17.33;;;;;0.63;80.65;100160.50;5153010;27;8824;-71
2021/01/13 01:41:06;;;;;;;;;17.33;16.00;;;;;0.82;81.05;100174.31;5155009;27;8986;-71
2021/01/13 01:44:01;;;;;;;;;15.33;13.67;;;;;0.85;80.70;100168.31;5153756;27;8817;-71
2021/01/13 01:46:30;;;;;;;;;13.67;12.00;;;;;0.94;80.93;100154.94;5156336;27;9115;-72
2021/01/13 01:49:26;;;;;;;;;15.00;13.00;;;;;1.02;80.64;100148.91;5153945;27;8837;-71
2021/01/13 01:52:21;;;;;;;;;16.67;15.00;;;;;1.21;80.45;100147.13;5153142;27;8821;-71
2021/01/13 01:55:24;;;;;;;;;15.67;14.33;;;;;1.12;79.51;100151.56;5140020;27;8821;-71
2021/01/13 01:58:28;;;;;;;;;12.67;12.67;;;;;1.27;79.05;100167.00;5120664;27;8819;-72
2021/01/13 02:01:39;;;;;;;;;15.00;12.67;;;;;1.41;78.55;100162.56;5121449;27;8849;-72
2021/01/13 02:04:41;;;;;;;;;16.00;15.00;;;;;1.24;78.62;100170.28;5120396;27;8811;-71
2021/01/13 02:07:37;;;;;;;;;13.67;11.67;;;;;1.01;78.08;100160.88;5135885;27;8835;-71
2021/01/13 02:10:33;;;;;;;;;7.00;7.00;;;;;1.07;78.23;100165.19;5151653;27;8825;-71
2021/01/13 02:13:07;;;;;;;;;7.00;7.00;;;;;1.00;77.81;100162.00;5137574;27;8827;-71
2021/01/13 02:16:03;;;;;;;;;13.67;13.67;;;;;1.00;78.06;100156.53;5134936;27;8937;-71
2021/01/13 02:18:59;;;;;;;;;16.67;16.67;;;;;1.25;78.01;100167.28;5133757;27;8843;-71
2021/01/13 02:22:02;;;;;;;;;12.00;9.67;;;;;1.39;76.76;100151.13;5124547;27;8831;-71
2021/01/13 02:25:33;;;;;;;;;16.67;16.67;;;;;1.10;78.00;100142.84;5133752;27;8934;-71
2021/01/13 02:28:31;;;;;;;;;15.67;11.67;;;;;1.00;78.54;100138.28;5135510;27;8839;-71
2021/01/13 02:31:29;;;;;;;;;12.67;12.67;;;;;1.16;78.25;100119.94;5137574;27;9585;-71
2021/01/13 02:34:48;;;;;;;;;10.00;7.00;;;;;1.01;78.23;100109.97;5154873;27;8825;-72
2021/01/13 02:37:52;;;;;;;;;11.33;11.33;;;;;0.78;78.64;100107.91;5154238;27;8951;-72
2021/01/13 02:40:49;;;;;;;;;9.67;7.67;;;;;1.02;77.84;100122.47;5152677;27;8837;-71
2021/01/13 02:43:21;;;;;;;;;12.33;12.33;;;;;0.84;78.68;100106.78;5155184;27;8817;-72
2021/01/13 02:46:41;;;;;;;;;10.67;10.00;;;;;0.74;79.40;100099.47;5154209;27;8833;-72
2021/01/13 02:49:46;;;;;;;;;12.33;11.33;;;;;0.93;78.83;100104.31;5133524;27;8807;-72
2021/01/13 02:53:07;;;;;;;;;16.00;16.00;;;;;0.88;79.36;100074.38;5141788;27;8841;-71
2021/01/13 02:55:47;;;;;;;;;7.67;5.33;;;;;1.34;78.63;100062.06;5119005;27;8890;-71
2021/01/13 02:58:24;;;;;;;;;15.67;12.00;;;;;1.14;78.45;100058.66;5138054;27;8995;-72
2021/01/13 03:01:20;;;;;;;;;15.67;14.33;;;;;1.32;78.47;100041.66;5133298;27;8867;-71
2021/01/13 03:04:16;;;;;;;;;17.00;16.00;;;;;1.18;78.75;100066.00;5132828;27;8834;-71
2021/01/13 03:07:14;;;;;;;;;15.67;15.67;;;;;1.35;78.30;100080.03;5132621;27;8831;-71
2021/01/13 03:10:17;;;;;;;;;13.67;11.33;;;;;1.23;78.55;100067.88;5119582;27;8857;-71
2021/01/13 03:13:13;;;;;;;;;13.00;10.67;;;;;1.19;78.96;100040.38;5135837;27;8822;-71
2021/01/13 03:16:14;;;;;;;;;19.00;19.00;;;;;1.40;78.14;100035.59;5153822;27;8844;-72
2021/01/13 03:19:17;;;;;;;;;16.33;16.00;;;;;1.36;78.14;100018.97;5154132;27;8821;-71
2021/01/13 03:22:17;;;;;;;;;15.00;13.00;;;;;1.16;79.14;100005.56;5136338;27;8827;-71
2021/01/13 03:25:17;;;;;;;;;13.00;13.00;;;;;1.30;78.71;100011.97;5132701;27;8823;-71
2021/01/13 03:28:16;;;;;;;;;10.00;10.00;;;;;1.30;78.91;100013.88;5133891;27;8819;-71
2021/01/13 03:30:49;;;;;;;;;13.67;13.67;;;;;1.43;78.19;100026.03;5115697;27;8900;-71
2021/01/13 03:34:12;;;;;;;;;16.33;14.33;;;;;1.43;78.04;100009.66;5132823;27;8854;-71
2021/01/13 03:37:24;;;;;;;;;10.00;10.00;;;;;1.17;78.54;100003.66;5119090;27;8832;-71
2021/01/13 03:40:21;;;;;;;;;5.33;4.00;;;;;1.10;78.95;99984.91;5144847;27;8860;-71
2021/01/13 03:43:22;;;;;;;;;17.67;17.67;;;;;1.25;78.55;99968.44;5150317;27;8825;-72
2021/01/13 03:46:17;;;;;;;;;18.00;16.33;;;;;1.27;78.71;99962.69;5132705;27;8861;-71
2021/01/13 03:49:19;;;;;;;;;12.33;11.67;;;;;1.20;78.95;99973.09;5119240;27;8843;-71
2021/01/13 03:52:15;;;;;;;;;23.33;14.33;;;;;1.23;79.27;99981.53;5122185;27;8956;-71
2021/01/13 03:54:43;;;;;;;;;14.00;14.00;;;;;1.22;78.10;99976.34;5133709;27;8859;-71
2021/01/13 03:57:54;;;;;;;;;17.67;16.00;;;;;1.43;78.44;99960.63;5146037;27;8873;-71
2021/01/13 04:00:59;;;;;;;;;19.33;19.33;;;;;1.46;78.27;99932.78;5132775;27;9603;-71
2021/01/13 04:04:10;;;;;;;;;23.00;20.00;;;;;1.29;78.64;99925.88;5132790;27;8853;-71
2021/01/13 04:07:09;;;;;;;;;14.33;14.33;;;;;1.21;79.34;99914.81;5137223;27;8916;-71
2021/01/13 04:10:11;;;;;;;;;15.33;15.33;;;;;1.29;79.36;99895.09;5147159;27;8819;-71
2021/01/13 04:12:51;;;;;;;;;14.67;12.33;;;;;1.02;79.85;99890.22;5133906;27;8873;-71
2021/01/13 04:15:50;;;;;;;;;13.33;13.33;;;;;1.15;79.44;99872.38;5132590;27;8823;-71
2021/01/13 04:18:48;;;;;;;;;11.00;11.00;;;;;1.16;79.77;99865.84;5120822;27;8827;-70
2021/01/13 04:21:44;;;;;;;;;16.00;16.00;;;;;1.49;79.12;99854.03;5146409;27;9584;-69
2021/01/13 04:24:44;;;;;;;;;24.00;23.33;;;;;1.31;79.79;99833.00;5136372;27;8835;-69
2021/01/13 04:27:41;;;;;;;;;23.33;22.67;;;;;1.48;79.43;99818.91;5137744;27;8851;-69
2021/01/13 04:30:37;;;;;;;;;24.00;21.67;;;;;1.66;78.54;99816.19;5136154;27;8815;-69
2021/01/13 04:33:33;;;;;;;;;33.67;31.67;;;;;1.81;78.33;99815.16;5136422;27;8823;-69
2021/01/13 04:36:34;;;;;;;;;13.00;13.00;;;;;1.60;78.94;99781.09;5135865;27;8815;-70
2021/01/13 04:39:30;;;;;;;;;10.00;8.67;;;;;1.83;77.79;99773.97;5122473;27;8871;-69
2021/01/13 04:41:59;;;;;;;;;10.33;10.33;;;;;1.25;80.10;99752.44;5136955;27;8837;-69
2021/01/13 04:45:07;;;;;;;;;9.33;9.33;;;;;1.32;79.78;99756.44;5139797;27;8847;-69
2021/01/13 04:48:23;;;;;;;;;2.00;2.00;;;;;1.38;80.03;99768.88;5135786;27;8823;-69
2021/01/13 04:50:51;;;;;;;;;10.33;10.33;;;;;1.29;79.70;99769.81;5145050;27;8844;-69
2021/01/13 04:53:47;;;;;;;;;13.67;13.67;;;;;1.54;79.43;99777.66;5155879;27;8840;-68
2021/01/13 04:57:02;;;;;;;;;13.67;13.67;;;;;1.73;78.31;99815.03;5155834;27;8840;-69
2021/01/13 05:00:08;;;;;;;;;22.00;22.00;;;;;1.94;77.99;99817.16;5156295;27;8848;-68
2021/01/13 05:03:21;;;;;;;;;12.00;12.00;;;;;1.81;77.58;99831.53;5142452;27;8821;-69
2021/01/13 05:06:49;;;;;;;;;26.00;25.00;;;;;1.98;77.82;99819.28;5139043;27;8820;-69
2021/01/13 05:09:58;;;;;;;;;20.33;19.33;;;;;2.09;77.35;99805.22;5156048;27;8813;-69
2021/01/13 05:12:49;;;;;;;;;15.33;15.33;;;;;2.08;77.14;99802.81;5157048;27;8829;-69
2021/01/13 05:15:55;;;;;;;;;27.33;27.33;;;;;2.14;76.95;99796.94;5144552;27;8831;-69
2021/01/13 05:18:50;;;;;;;;;8.00;8.00;;;;;1.86;77.42;99784.31;5141178;27;8815;-70
2021/01/13 05:21:54;;;;;;;;;17.67;16.33;;;;;2.12;77.54;99774.63;5143722;27;11659;-69
2021/01/13 05:24:52;;;;;;;;;19.00;19.00;;;;;2.09;77.44;99786.13;5144650;27;8817;-69
2021/01/13 05:27:46;;;;;;;;;16.00;14.67;;;;;2.09;77.63;99794.31;5140826;27;8999;-69
2021/01/13 05:31:00;;;;;;;;;13.00;10.67;;;;;2.11;77.26;99824.03;5134071;27;11494;-69
2021/01/13 05:33:58;;;;;;;;;14.00;14.00;;;;;2.20;77.64;99822.25;5136013;27;8827;-70
2021/01/13 05:36:29;;;;;;;;;11.67;11.67;;;;;2.10;78.33;99803.31;5135710;27;9573;-69
2021/01/13 05:39:23;;;;;;;;;16.00;16.00;;;;;2.24;77.90;99817.81;5131088;27;11465;-69
2021/01/13 05:41:51;;;;;;;;;18.67;17.67;;;;;2.47;77.10;99806.00;5137130;27;11507;-69
2021/01/13 05:44:46;;;;;;;;;14.67;14.00;;;;;2.15;78.36;99787.69;5139912;27;11480;-69
2021/01/13 05:47:53;;;;;;;;;12.67;12.67;;;;;1.98;78.92;99767.47;5120596;27;11639;-69
2021/01/13 05:50:22;;;;;;;;;27.33;26.67;;;;;2.26;78.01;99776.59;5135476;27;11486;-69
2021/01/13 05:53:19;;;;;;;;;13.33;13.33;;;;;2.27;78.36;99781.75;5135072;27;8823;-70
2021/01/13 05:55:49;;;;;;;;;20.00;17.00;;;;;2.17;78.78;99790.09;5134956;27;8835;-68
2021/01/13 05:58:44;;;;;;;;;25.33;23.00;;;;;2.39;78.30;99798.47;5133913;27;11533;-70
2021/01/13 06:01:45;;;;;;;;;24.67;23.33;;;;;2.35;78.25;99764.69;5135382;27;8831;-71
2021/01/13 06:04:46;;;;;;;;;22.67;21.00;;;;;2.24;79.17;99733.25;5120644;27;8842;-71
2021/01/13 06:07:45;;;;;;;;;19.00;16.00;;;;;2.31;78.66;99739.13;5135148;27;8836;-71
2021/01/13 06:10:41;;;;;;;;;18.33;17.00;;;;;2.36;78.07;99754.59;5153982;27;11652;-70
2021/01/13 06:13:16;;;;;;;;;14.67;14.67;;;;;2.56;77.37;99753.44;5127750;27;11609;-70
2021/01/13 06:15:45;;;;;;;;;17.33;17.33;;;;;2.37;78.48;99765.19;5147283;27;11659;-70
2021/01/13 06:18:43;;;;;;;;;31.00;31.00;;;;;2.46;78.26;99757.16;5133798;27;11480;-71
2021/01/13 06:21:13;;;;;;;;;23.67;20.33;;;;;2.30;78.43;99750.31;5135555;27;11508;-71
2021/01/13 06:23:51;;;;;;;;;29.33;27.00;;;;;2.41;78.60;99730.75;5135453;27;11514;-71
2021/01/13 06:27:14;;;;;;;;;24.00;24.00;;;;;2.54;78.65;99704.63;5133858;27;11600;-71
2021/01/13 06:30:03;;;;;;;;;9.50;9.50;;;;;2.48;78.44;99675.78;5148277;27;12244;-71
2021/01/13 06:33:02;;;;;;;;;25.00;23.00;;;;;2.58;78.72;99681.06;5152317;27;11465;-70
2021/01/13 06:35:42;;;;;;;;;17.67;17.67;;;;;2.30;78.95;99643.91;5136150;27;11607;-70
2021/01/13 06:38:48;;;;;;;;;10.67;10.67;;;;;2.31;79.12;99638.19;5138469;27;11556;-71
2021/01/13 06:41:48;;;;;;;;;10.67;10.67;;;;;2.06;80.22;99623.06;5139181;27;11491;-73
2021/01/13 06:44:17;;;;;;;;;16.33;16.33;;;;;2.17;80.13;99640.09;5136165;27;11464;-71
2021/01/13 06:47:12;;;;;;;;;15.33;15.33;;;;;2.51;78.85;99670.53;5149510;27;11564;-71
2021/01/13 06:49:48;;;;;;;;;22.00;22.00;;;;;2.57;78.63;99687.63;5150071;27;11583;-72
2021/01/13 06:52:29;;;;;;;;;14.67;14.67;;;;;2.56;78.34;99669.63;5148746;27;11523;-72
2021/01/13 06:55:01;;;;;;;;;21.00;19.33;;;;;2.63;78.82;99656.41;5145007;27;11515;-73
2021/01/13 06:57:43;;;;;;;;;16.50;16.50;;;;;2.52;78.70;99679.53;5141843;27;11562;-73
2021/01/13 07:00:41;;;;;;;;;21.50;18.00;;;;;2.70;78.55;99675.91;5135253;27;11608;-72
2021/01/13 07:03:29;;;;;;;;;16.50;16.50;;;;;2.82;78.30;99674.59;5134938;27;11472;-72
2021/01/13 07:06:25;;;;;;;;;17.50;15.25;;;;;2.74;78.04;99674.19;5121500;27;11555;-73
2021/01/13 07:08:54;;;;;;;;;18.00;18.00;;;;;2.70;78.87;99653.25;5134102;27;11493;-72
2021/01/13 07:11:43;;;;;;;;;24.67;24.67;;;;;2.79;78.80;99648.69;5140259;27;11516;-73
2021/01/13 07:14:41;;;;;;;;;33.00;33.00;;;;;2.81;78.60;99626.56;5134601;27;8847;-73
2021/01/13 07:17:36;;;;;;;;;36.00;36.00;;;;;2.72;79.56;99593.69;5133023;27;8823;-72
2021/01/13 07:20:40;;;;;;;;;35.67;32.67;;;;;2.77;79.13;99575.28;5119421;27;8853;-72
2021/01/13 07:23:40;;;;;;;;;22.67;22.67;;;;;2.78;79.18;99573.38;5132176;27;11530;-72
2021/01/13 07:26:38;;;;;;;;;31.33;31.33;;;;;2.87;78.90;99598.03;5132918;27;11501;-72
2021/01/13 07:29:06;;;;;;;;;42.67;42.33;;;;;2.88;79.83;99586.00;5152665;27;11573;-72
2021/01/13 07:32:03;;;;;;;;;38.00;36.33;;;;;2.70;80.77;99593.22;5132795;27;8831;-73
2021/01/13 07:35:05;;;;;;;;;0.00;0.00;;;;;2.68;80.53;99609.88;5132783;27;8839;-73
2021/01/13 07:38:02;;;;;;;;;26.67;26.67;;;;;3.61;83.60;99614.91;5133105;27;8850;-73
2021/01/13 07:41:09;;;;;;;;;46.67;42.33;;;;;4.47;84.80;99625.53;5118571;27;12283;-72
2021/01/13 07:44:02;;;;;;;;;51.33;46.00;;;;;3.71;79.53;99624.78;5133160;27;11528;-72
2021/01/13 07:47:02;;;;;;;;;62.00;50.33;;;;;4.66;83.19;99595.16;5140181;27;11522;-73
2021/01/13 07:50:07;;;;;;;;;54.67;49.00;;;;;4.20;79.67;99566.31;5141837;27;8831;-72
2021/01/13 07:53:08;;;;;;;;;46.33;44.67;;;;;3.84;79.05;99547.34;5133151;27;11528;-69
2021/01/13 07:56:05;;;;;;;;;34.00;32.50;;;;;3.50;78.65;99567.88;5136540;27;11602;-72
2021/01/13 07:59:38;;;;;;;;;38.25;37.25;;;;;3.52;78.35;99584.75;5133145;27;11510;-73
2021/01/13 08:03:21;;;;;;;;;34.00;34.00;;;;;3.60;78.06;99547.66;5141228;27;11607;-73
2021/01/13 08:06:29;;;;;;;;;44.00;40.33;;;;;3.48;78.44;99539.25;5137182;27;11568;-73
2021/01/13 08:09:26;;;;;;;;;66.33;54.00;;;;;3.72;77.74;99541.63;5119235;27;11544;-72
2021/01/13 08:13:03;;;;;;;;;53.33;47.00;;;;;3.55;78.34;99543.16;5123335;27;8827;-74
2021/01/13 08:16:01;;;;;;;;;32.67;31.67;;;;;3.78;78.12;99543.13;5136582;27;8828;-74
2021/01/13 08:19:37;;;;;;;;;54.33;47.33;;;;;3.79;77.78;99529.13;5122515;27;8899;-74
2021/01/13 08:22:10;;;;;;;;;40.00;37.67;;;;;3.63;78.44;99538.84;5143062;27;8845;-74
2021/01/13 08:25:18;;;;;;;;;48.33;42.33;;;;;3.56;78.50;99524.81;5157731;27;11519;-73
2021/01/13 08:28:16;;;;;;;;;55.67;45.67;;;;;3.53;79.20;99519.97;5143592;27;8911;-73
2021/01/13 08:31:23;;;;;;;;;50.67;46.33;;;;;3.55;79.18;99507.59;5138665;27;8943;-72
2021/01/13 08:34:09;;;;;;;;;63.67;48.67;;;;;3.67;78.45;99507.00;5147040;27;8866;-73
2021/01/13 08:36:58;;;;;;;;;48.00;45.67;;;;;3.63;78.73;99514.25;5143115;27;8859;-72
2021/01/13 08:39:31;;;;;;;;;56.00;49.33;;;;;3.61;79.22;99517.28;5124609;27;11517;-73
2021/01/13 08:42:18;;;;;;;;;45.33;44.00;;;;;3.80;78.68;99521.72;5118943;27;11523;-72
2021/01/13 08:45:44;;;;;;;;;36.33;34.67;;;;;3.79;78.46;99523.66;5134169;27;11521;-73
2021/01/13 08:48:14;;;;;;;;;28.00;27.00;;;;;3.75;78.63;99502.72;5116695;27;11531;-72
2021/01/13 08:51:09;;;;;;;;;32.50;31.00;;;;;3.74;78.86;99487.44;5135888;27;11517;-71
2021/01/13 08:54:21;;;;;;;;;43.33;38.00;;;;;3.85;78.30;99475.09;5135361;27;11541;-72
2021/01/13 08:56:55;;;;;;;;;66.33;53.67;;;;;3.98;78.11;99465.97;5138905;27;11517;-72
2021/01/13 08:59:54;;;;;;;;;39.00;38.67;;;;;3.99;77.99;99459.41;5153173;27;8821;-70
2021/01/13 09:03:10;;;;;;;;;60.33;50.33;;;;;3.88;78.55;99460.78;5143553;27;11522;-72
2021/01/13 09:06:21;;;;;;;;;80.00;61.67;;;;;3.89;78.54;99465.13;5146514;27;8921;-72
2021/01/13 09:09:17;;;;;;;;;63.33;53.33;;;;;3.85;78.87;99464.97;5148688;27;8803;-72
2021/01/13 09:12:32;;;;;;;;;66.67;53.67;;;;;4.07;77.98;99457.81;5122420;27;8838;-72
2021/01/13 09:15:30;;;;;;;;;79.00;64.33;;;;;3.90;78.55;99447.59;5121267;27;8887;-73
2021/01/13 09:18:29;;;;;;;;;72.33;57.00;;;;;4.07;77.94;99449.59;5121603;27;8827;-72
2021/01/13 09:21:31;;;;;;;;;77.00;62.67;;;;;4.01;78.49;99440.72;5138578;27;8839;-71
2021/01/13 09:24:36;;;;;;;;;52.00;46.67;;;;;3.95;78.93;99452.94;5155919;27;8867;-73
2021/01/13 09:27:36;;;;;;;;;60.67;51.67;;;;;3.95;78.49;99449.41;5148878;27;11492;-71
2021/01/13 09:30:08;;;;;;;;;60.33;52.33;;;;;4.12;78.15;99447.50;5143886;27;11527;-71
2021/01/13 09:33:10;;;;;;;;;52.33;44.33;;;;;4.26;77.83;99466.53;5135562;27;8880;-72
2021/01/13 09:35:48;;;;;;;;;42.33;41.00;;;;;4.23;78.00;99460.91;5157270;27;11491;-71
2021/01/13 09:38:26;;;;;;;;;41.75;40.50;;;;;4.42;77.46;99477.84;5120116;27;11507;-71
2021/01/13 09:41:21;;;;;;;;;58.00;48.00;;;;;4.52;77.22;99488.47;5135089;27;11604;-71
2021/01/13 09:44:22;;;;;;;;;45.00;40.67;;;;;4.45;77.40;99463.53;5134296;27;11626;-72
2021/01/13 09:46:51;;;;;;;;;60.00;49.67;;;;;4.52;77.49;99452.88;5136533;27;11479;-71
2021/01/13 09:49:23;;;;;;;;;80.33;62.33;;;;;4.58;77.19;99442.59;5135491;27;11495;-70
2021/01/13 09:52:19;;;;;;;;;61.00;50.00;;;;;4.71;77.07;99461.63;5135165;27;8842;-71
2021/01/13 09:55:22;;;;;;;;;54.33;48.00;;;;;4.65;77.63;99448.41;5120832;27;12350;-72
2021/01/13 09:58:41;;;;;;;;;67.67;57.00;;;;;4.83;76.93;99419.06;5121093;27;11521;-72
2021/01/13 10:01:38;;;;;;;;;70.67;57.67;;;;;4.64;77.44;99439.38;5120563;27;8850;-72
2021/01/13 10:04:34;;;;;;;;;73.33;60.00;;;;;4.70;77.19;99434.56;5121606;27;8854;-71
2021/01/13 10:07:32;;;;;;;;;74.33;60.67;;;;;4.61;77.14;99431.00;5134026;27;8939;-72
2021/01/13 10:10:02;;;;;;;;;79.00;63.33;;;;;4.75;77.10;99428.91;5143024;27;8817;-72
2021/01/13 10:12:59;;;;;;;;;69.00;56.33;;;;;4.81;77.00;99421.31;5133772;27;8963;-71
2021/01/13 10:16:00;;;;;;;;;77.67;58.33;;;;;4.90;76.83;99427.59;5139036;27;8825;-72
2021/01/13 10:19:03;;;;;;;;;65.00;52.33;;;;;4.91;76.96;99430.03;5136796;27;8835;-71
2021/01/13 10:21:44;;;;;;;;;72.00;58.00;;;;;4.89;77.44;99434.22;5134466;27;11596;-71
2021/01/13 10:24:41;;;;;;;;;75.00;60.33;;;;;4.84;77.30;99428.91;5135213;27;8839;-72
2021/01/13 10:27:10;;;;;;;;;77.33;63.33;;;;;4.90;77.50;99420.19;5137199;27;8813;-71
2021/01/13 10:29:44;;;;;;;;;88.33;70.67;;;;;4.97;77.33;99425.97;5155683;27;8825;-71
2021/01/13 10:32:12;;;;;;;;;88.00;69.67;;;;;4.87;77.33;99420.84;5136417;27;8833;-72
2021/01/13 10:34:43;;;;;;;;;88.67;69.33;;;;;4.95;77.26;99416.50;5122330;27;9638;-73
2021/01/13 10:37:11;;;;;;;;;89.33;70.67;;;;;4.86;77.55;99411.03;5130394;27;8916;-72
2021/01/13 10:39:39;;;;;;;;;92.67;75.67;;;;;5.05;77.07;99401.63;5155001;27;8849;-72
2021/01/13 10:42:39;;;;;;;;;92.33;72.67;;;;;5.01;76.87;99393.28;5132207;27;8855;-72
2021/01/13 10:45:15;;;;;;;;;90.33;71.00;;;;;5.15;76.77;99363.75;5112842;27;8875;-72
2021/01/13 10:47:56;;;;;;;;;101.00;84.00;;;;;5.37;76.30;99348.19;5152451;27;8943;-71
2021/01/13 10:50:30;;;;;;;;;86.33;67.00;;;;;5.20;76.59;99344.38;5125571;27;8823;-72
2021/01/13 10:53:30;;;;;;;;;69.00;56.00;;;;;5.23;76.64;99365.66;5133242;27;8833;-71
2021/01/13 10:56:31;;;;;;;;;67.33;56.67;;;;;5.29;76.50;99369.84;5125820;27;8838;-72
2021/01/13 10:59:28;;;;;;;;;60.00;50.50;;;;;5.34;75.69;99362.56;5131621;27;11517;-70
2021/01/13 11:02:14;;;;;;;;;61.50;52.75;;;;;5.42;75.46;99367.19;5139230;27;11505;-69
2021/01/13 11:04:46;;;;;;;;;62.75;53.00;;;;;5.40;75.84;99348.34;5135252;27;11481;-70
2021/01/13 11:07:19;;;;;;;;;67.67;55.00;;;;;5.35;75.82;99342.22;5155054;27;11512;-71
2021/01/13 11:09:49;;;;;;;;;69.00;58.00;;;;;5.25;76.62;99343.41;5135536;27;11536;-71
2021/01/13 11:12:21;;;;;;;;;77.00;62.33;;;;;5.44;75.90;99343.78;5154211;27;11528;-72
2021/01/13 11:14:51;;;;;;;;;76.33;60.00;;;;;5.34;75.64;99343.34;5154558;27;8867;-71
2021/01/13 11:17:50;;;;;;;;;85.67;68.67;;;;;5.17;76.34;99361.47;5130116;27;8823;-71
2021/01/13 11:20:52;;;;;;;;;73.67;60.33;;;;;5.14;76.57;99348.44;5132775;27;9590;-72
2021/01/13 11:23:23;;;;;;;;;76.00;60.33;;;;;5.02;76.77;99351.03;5143101;27;8833;-72
2021/01/13 11:25:55;;;;;;;;;72.00;56.00;;;;;5.12;76.19;99356.16;5138896;27;8841;-71
2021/01/13 11:28:52;;;;;;;;;72.33;60.00;;;;;5.08;76.16;99352.47;5136240;27;8859;-73
2021/01/13 11:31:48;;;;;;;;;69.00;55.33;;;;;4.87;76.16;99365.25;5132988;27;8819;-71
2021/01/13 11:34:20;;;;;;;;;71.33;56.33;;;;;4.79;76.27;99360.59;5127975;27;8851;-71
2021/01/13 11:37:22;;;;;;;;;63.33;48.33;;;;;4.72;76.11;99359.16;5145182;27;8843;-72
2021/01/13 11:40:37;;;;;;;;;63.00;52.67;;;;;4.66;76.22;99349.47;5137133;27;8831;-73
2021/01/13 11:43:57;;;;;;;;;53.00;45.75;;;;;4.60;76.14;99360.91;5144153;27;8962;-72
2021/01/13 11:47:05;;;;;;;;;46.25;40.00;;;;;4.72;75.70;99363.81;5136569;27;11497;-72
2021/01/13 11:49:33;;;;;;;;;40.50;39.25;;;;;4.65;76.14;99377.19;5119939;27;11567;-73
2021/01/13 11:52:07;;;;;;;;;44.00;41.00;;;;;4.45;76.28;99373.19;5131408;27;11520;-73
2021/01/13 11:54:35;;;;;;;;;47.33;43.67;;;;;4.54;76.62;99387.69;5127882;27;11483;-74
2021/01/13 11:57:34;;;;;;;;;43.00;41.67;;;;;4.68;75.86;99395.75;5122467;27;11669;-73
2021/01/13 12:00:12;;;;;;;;;39.50;39.50;;;;;4.63;76.01;99415.88;5137577;27;11616;-72
2021/01/13 12:02:47;;;;;;;;;48.67;44.67;;;;;4.57;76.29;99411.66;5142140;27;11509;-73
2021/01/13 12:05:29;;;;;;;;;42.00;41.33;;;;;4.55;76.41;99407.66;5126571;27;11543;-73
2021/01/13 12:08:07;;;;;;;;;47.50;41.50;;;;;4.49;76.43;99420.69;5143500;27;11493;-72
2021/01/13 12:11:03;;;;;;;;;40.25;39.25;;;;;4.45;76.30;99442.44;5141759;27;11770;-73
2021/01/13 12:13:45;;;;;;;;;42.75;39.50;;;;;4.43;76.15;99452.06;5143973;27;12349;-72
2021/01/13 12:16:41;;;;;;;;;38.50;36.00;;;;;4.39;76.56;99445.66;5129386;27;11541;-75
2021/01/13 12:19:41;;;;;;;;;33.00;32.75;;;;;4.41;75.45;99444.19;5142370;27;11565;-75
2021/01/13 12:22:37;;;;;;;;;40.75;36.25;;;;;4.45;75.90;99464.34;5136697;27;11501;-75
2021/01/13 12:25:06;;;;;;;;;41.75;36.50;;;;;4.43;76.05;99474.78;5127005;27;11501;-76
2021/01/13 12:27:39;;;;;;;;;36.75;36.25;;;;;4.40;75.95;99477.38;5137326;27;11505;-76
2021/01/13 12:30:25;;;;;;;;;34.75;34.00;;;;;4.34;76.04;99476.69;5121005;27;12335;-77
2021/01/13 12:33:21;;;;;;;;;33.50;33.00;;;;;4.39;75.59;99473.00;5135884;27;11667;-77
2021/01/13 12:36:21;;;;;;;;;29.50;26.75;;;;;4.14;76.28;99471.81;5136284;27;11485;-77
2021/01/13 12:39:28;;;;;;;;;29.00;29.00;;;;;4.18;75.83;99481.81;5136045;27;11499;-76
2021/01/13 12:42:30;;;;;;;;;24.50;24.50;;;;;4.15;76.00;99479.72;5126841;27;11606;-77
2021/01/13 12:45:26;;;;;;;;;26.00;25.25;;;;;4.16;75.62;99475.06;5137169;27;11494;-76
2021/01/13 12:48:22;;;;;;;;;22.75;22.75;;;;;4.00;75.36;99482.09;5142946;27;11471;-78
2021/01/13 12:51:18;;;;;;;;;26.00;23.25;;;;;4.08;74.74;99487.59;5128311;27;11477;-78
2021/01/13 12:54:13;;;;;;;;;26.00;25.75;;;;;4.04;74.95;99488.53;5145318;27;11480;-77
2021/01/13 12:57:09;;;;;;;;;29.50;28.50;;;;;3.73;75.21;99499.50;5135423;27;11499;-78
2021/01/13 13:00:05;;;;;;;;;26.75;25.25;;;;;3.83;74.90;99483.63;5130253;27;11532;-77
2021/01/13 13:03:05;;;;;;;;;28.00;25.50;;;;;3.76;75.10;99487.94;5156151;27;11530;-78
2021/01/13 13:06:01;;;;;;;;;23.50;20.00;;;;;3.68;74.88;99473.09;5153086;27;11519;-77
2021/01/13 13:09:10;;;;;;;;;21.75;21.75;;;;;3.87;75.16;99481.06;5121954;27;11545;-77
2021/01/13 13:12:06;;;;;;;;;19.25;19.25;;;;;3.77;75.08;99482.16;5121617;27;11550;-77
2021/01/13 13:15:02;;;;;;;;;20.25;17.50;;;;;3.72;75.04;99495.94;5124907;27;11495;-78
2021/01/13 13:17:58;;;;;;;;;21.00;21.00;;;;;3.86;74.26;99501.34;5140491;27;11472;-78
2021/01/13 13:20:53;;;;;;;;;25.00;25.00;;;;;3.83;74.14;99507.41;5138361;27;12279;-77
2021/01/13 13:23:50;;;;;;;;;21.50;21.50;;;;;3.67;74.41;99511.69;5135607;27;11497;-78
2021/01/13 13:26:19;;;;;;;;;20.25;18.00;;;;;3.50;74.00;99515.94;5148703;27;11487;-78
2021/01/13 13:28:47;;;;;;;;;20.75;20.75;;;;;3.68;74.51;99533.25;5151779;27;11489;-78
2021/01/13 13:31:20;;;;;;;;;16.00;15.00;;;;;3.67;75.25;99547.22;5123997;27;11475;-78